sensor_id;sensor_type;location;lat;lon;timestamp;pressure;altitude;pressure_sealevel;temperature;humidity
41062;BME280;26812;42.662;23.352;2023-01-30T00:00:55;95133.69;;;0.38;68.27
41062;BME280;26812;42.662;23.352;2023-01-30T00:03:21;95157.38;;;0.71;67.91
41062;BME280;26812;42.662;23.352;2023-01-30T00:05:47;95108.53;;;0.40;67.98
41062;BME280;26812;42.662;23.352;2023-01-30T00:08:13;95137.47;;;0.69;67.74
41062;BME280;26812;42.662;23.352;2023-01-30T00:10:39;95080.06;;;0.09;67.64
41062;BME280;26812;42.662;23.352;2023-01-30T00:13:04;95157.09;;;0.68;68.17
41062;BME280;26812;42.662;23.352;2023-01-30T00:15:30;95152.13;;;0.76;67.49
41062;BME280;26812;42.662;23.352;2023-01-30T00:17:55;95149.72;;;0.75;68.10
41062;BME280;26812;42.662;23.352;2023-01-30T00:20:35;95113.09;;;0.23;67.71
41062;BME280;26812;42.662;23.352;2023-01-30T00:23:07;95158.75;;;0.52;68.35
41062;BME280;26812;42.662;23.352;2023-01-30T00:25:33;95157.19;;;0.56;68.48
41062;BME280;26812;42.662;23.352;2023-01-30T00:27:59;95146.84;;;0.76;67.84
41062;BME280;26812;42.662;23.352;2023-01-30T00:30:29;95139.94;;;0.53;68.22
41062;BME280;26812;42.662;23.352;2023-01-30T00:32:55;95091.81;;;-0.04;68.76
41062;BME280;26812;42.662;23.352;2023-01-30T00:35:21;95162.09;;;0.42;69.44
41062;BME280;26812;42.662;23.352;2023-01-30T00:37:47;95147.53;;;0.45;69.11
41062;BME280;26812;42.662;23.352;2023-01-30T00:40:12;95129.78;;;0.23;69.18
41062;BME280;26812;42.662;23.352;2023-01-30T00:42:41;95129.16;;;0.16;69.28
41062;BME280;26812;42.662;23.352;2023-01-30T00:45:40;95128.78;;;0.29;69.78
41062;BME280;26812;42.662;23.352;2023-01-30T00:48:26;95143.84;;;0.24;69.38
41062;BME280;26812;42.662;23.352;2023-01-30T00:50:52;95137.78;;;0.28;69.96
41062;BME280;26812;42.662;23.352;2023-01-30T00:53:17;95130.59;;;0.46;69.54
41062;BME280;26812;42.662;23.352;2023-01-30T00:55:43;95080.22;;;0.24;69.45
41062;BME280;26812;42.662;23.352;2023-01-30T00:58:10;95133.75;;;0.43;69.39
41062;BME280;26812;42.662;23.352;2023-01-30T01:00:37;95142.94;;;0.35;69.15
41062;BME280;26812;42.662;23.352;2023-01-30T01:03:02;95101.06;;;0.15;69.95
41062;BME280;26812;42.662;23.352;2023-01-30T01:05:28;95135.84;;;0.41;69.17
41062;BME280;26812;42.662;23.352;2023-01-30T01:07:54;95117.59;;;0.22;69.58
41062;BME280;26812;42.662;23.352;2023-01-30T01:10:20;95144.34;;;0.43;69.86
41062;BME280;26812;42.662;23.352;2023-01-30T01:12:48;95114.50;;;0.30;69.54
41062;BME280;26812;42.662;23.352;2023-01-30T01:15:14;95121.09;;;0.50;69.17
41062;BME280;26812;42.662;23.352;2023-01-30T01:17:40;95132.91;;;0.64;68.88
41062;BME280;26812;42.662;23.352;2023-01-30T01:20:07;95071.69;;;0.17;68.88
41062;BME280;26812;42.662;23.352;2023-01-30T01:22:32;95065.19;;;0.29;67.99
41062;BME280;26812;42.662;23.352;2023-01-30T01:24:58;95091.91;;;0.50;68.59
41062;BME280;26812;42.662;23.352;2023-01-30T01:27:23;95101.69;;;0.44;68.76
41062;BME280;26812;42.662;23.352;2023-01-30T01:29:49;95055.25;;;-0.29;69.02
41062;BME280;26812;42.662;23.352;2023-01-30T01:32:14;95037.84;;;-0.42;70.38
41062;BME280;26812;42.662;23.352;2023-01-30T01:34:40;95097.31;;;0.11;69.93
41062;BME280;26812;42.662;23.352;2023-01-30T01:37:05;95086.22;;;0.14;69.92
41062;BME280;26812;42.662;23.352;2023-01-30T01:39:31;95109.69;;;0.27;69.23
41062;BME280;26812;42.662;23.352;2023-01-30T01:42:16;95034.00;;;0.10;69.00
41062;BME280;26812;42.662;23.352;2023-01-30T01:50:19;95107.59;;;0.29;69.28
41062;BME280;26812;42.662;23.352;2023-01-30T01:52:48;95119.69;;;0.42;69.10
41062;BME280;26812;42.662;23.352;2023-01-30T01:55:16;95068.19;;;0.11;69.56
41062;BME280;26812;42.662;23.352;2023-01-30T01:57:47;95094.97;;;0.15;69.94
41062;BME280;26812;42.662;23.352;2023-01-30T02:00:15;95057.88;;;-0.07;70.09
41062;BME280;26812;42.662;23.352;2023-01-30T02:02:49;95064.38;;;0.02;69.20
41062;BME280;26812;42.662;23.352;2023-01-30T02:05:17;95039.84;;;-0.10;69.43
41062;BME280;26812;42.662;23.352;2023-01-30T02:07:50;95118.03;;;0.36;68.67
41062;BME280;26812;42.662;23.352;2023-01-30T02:10:26;95083.69;;;0.24;68.82
41062;BME280;26812;42.662;23.352;2023-01-30T02:12:53;95077.47;;;0.14;68.51
41062;BME280;26812;42.662;23.352;2023-01-30T02:15:19;95090.41;;;0.32;68.82
41062;BME280;26812;42.662;23.352;2023-01-30T02:17:44;95044.38;;;0.16;68.32
41062;BME280;26812;42.662;23.352;2023-01-30T02:34:44;95119.34;;;-0.05;69.16
41062;BME280;26812;42.662;23.352;2023-01-30T02:37:21;95113.03;;;0.18;69.44
41062;BME280;26812;42.662;23.352;2023-01-30T02:40:04;95104.53;;;0.38;68.71
41062;BME280;26812;42.662;23.352;2023-01-30T02:45:28;95098.41;;;-0.07;69.07
41062;BME280;26812;42.662;23.352;2023-01-30T02:48:06;95100.47;;;0.08;69.34
41062;BME280;26812;42.662;23.352;2023-01-30T02:50:47;95061.34;;;-0.07;69.11
41062;BME280;26812;42.662;23.352;2023-01-30T02:53:15;95028.13;;;-0.14;68.44
41062;BME280;26812;42.662;23.352;2023-01-30T02:55:41;95103.34;;;0.28;68.90
41062;BME280;26812;42.662;23.352;2023-01-30T02:58:07;95042.69;;;0.05;68.48
41062;BME280;26812;42.662;23.352;2023-01-30T03:00:39;95101.22;;;0.52;68.84
41062;BME280;26812;42.662;23.352;2023-01-30T03:12:15;95083.50;;;0.58;67.46
41062;BME280;26812;42.662;23.352;2023-01-30T03:17:11;95075.28;;;0.06;67.60
41062;BME280;26812;42.662;23.352;2023-01-30T03:19:38;95048.78;;;-0.16;68.26
41062;BME280;26812;42.662;23.352;2023-01-30T03:22:04;95014.41;;;-0.33;68.46
41062;BME280;26812;42.662;23.352;2023-01-30T03:24:29;95085.28;;;0.25;68.12
41062;BME280;26812;42.662;23.352;2023-01-30T03:26:59;94945.81;;;-0.78;68.20
41062;BME280;26812;42.662;23.352;2023-01-30T03:29:26;95026.38;;;-0.30;68.06
41062;BME280;26812;42.662;23.352;2023-01-30T03:31:52;95039.22;;;-0.17;68.12
41062;BME280;26812;42.662;23.352;2023-01-30T03:34:17;95037.75;;;-0.08;68.51
41062;BME280;26812;42.662;23.352;2023-01-30T03:36:43;94981.91;;;-0.50;68.61
41062;BME280;26812;42.662;23.352;2023-01-30T03:39:08;95006.16;;;-0.58;69.73
41062;BME280;26812;42.662;23.352;2023-01-30T03:41:34;94995.81;;;-0.60;68.49
41062;BME280;26812;42.662;23.352;2023-01-30T03:43:59;95018.97;;;-0.67;69.11
41062;BME280;26812;42.662;23.352;2023-01-30T03:46:24;95046.25;;;-0.28;69.03
41062;BME280;26812;42.662;23.352;2023-01-30T03:49:14;95065.72;;;0.05;68.25
41062;BME280;26812;42.662;23.352;2023-01-30T03:51:42;95035.84;;;-0.13;67.93
41062;BME280;26812;42.662;23.352;2023-01-30T03:54:08;95056.97;;;0.04;68.00
41062;BME280;26812;42.662;23.352;2023-01-30T03:56:33;94996.13;;;-0.13;67.59
41062;BME280;26812;42.662;23.352;2023-01-30T03:58:59;95022.34;;;-0.33;68.50
41062;BME280;26812;42.662;23.352;2023-01-30T04:01:30;95048.84;;;-0.11;68.53
41062;BME280;26812;42.662;23.352;2023-01-30T04:03:56;95046.25;;;-0.06;68.85
41062;BME280;26812;42.662;23.352;2023-01-30T04:06:45;95005.66;;;-0.55;69.78
41062;BME280;26812;42.662;23.352;2023-01-30T04:09:11;95042.63;;;-0.22;68.80
41062;BME280;26812;42.662;23.352;2023-01-30T04:11:36;95000.09;;;-0.32;69.43
41062;BME280;26812;42.662;23.352;2023-01-30T04:14:02;95008.56;;;-0.13;69.14
41062;BME280;26812;42.662;23.352;2023-01-30T04:16:27;95055.78;;;-0.05;69.25
41062;BME280;26812;42.662;23.352;2023-01-30T04:18:53;95059.03;;;0.24;68.63
41062;BME280;26812;42.662;23.352;2023-01-30T04:21:18;95014.66;;;-0.35;68.95
41062;BME280;26812;42.662;23.352;2023-01-30T04:23:44;95031.03;;;-0.38;69.68
41062;BME280;26812;42.662;23.352;2023-01-30T04:26:10;95033.00;;;-0.28;70.16
41062;BME280;26812;42.662;23.352;2023-01-30T04:28:36;95010.94;;;-0.34;70.15
41062;BME280;26812;42.662;23.352;2023-01-30T04:31:01;95033.84;;;-0.01;68.80
41062;BME280;26812;42.662;23.352;2023-01-30T04:33:27;95058.75;;;-0.02;68.65
41062;BME280;26812;42.662;23.352;2023-01-30T04:35:54;95063.47;;;-0.04;69.68
41062;BME280;26812;42.662;23.352;2023-01-30T04:38:20;94973.41;;;-0.52;69.64
41062;BME280;26812;42.662;23.352;2023-01-30T04:40:50;95017.19;;;-0.23;69.15
41062;BME280;26812;42.662;23.352;2023-01-30T04:43:42;95052.78;;;-0.14;69.49
41062;BME280;26812;42.662;23.352;2023-01-30T04:46:07;94989.63;;;-0.66;70.03
41062;BME280;26812;42.662;23.352;2023-01-30T04:48:33;95005.47;;;-0.49;70.61
41062;BME280;26812;42.662;23.352;2023-01-30T04:50:58;95005.41;;;-0.32;70.29
41062;BME280;26812;42.662;23.352;2023-01-30T04:53:24;94947.28;;;-0.66;69.84
41062;BME280;26812;42.662;23.352;2023-01-30T04:55:50;95016.00;;;-0.32;69.92
41062;BME280;26812;42.662;23.352;2023-01-30T04:58:16;95046.53;;;-0.03;69.86
41062;BME280;26812;42.662;23.352;2023-01-30T05:00:43;95030.03;;;-0.32;71.01
41062;BME280;26812;42.662;23.352;2023-01-30T05:03:09;95036.50;;;-0.44;71.37
41062;BME280;26812;42.662;23.352;2023-01-30T05:05:34;95035.03;;;-0.57;72.72
41062;BME280;26812;42.662;23.352;2023-01-30T05:08:00;94994.03;;;-0.54;72.03
41062;BME280;26812;42.662;23.352;2023-01-30T05:10:25;94970.41;;;-0.61;71.83
41062;BME280;26812;42.662;23.352;2023-01-30T05:12:51;94983.44;;;-0.33;71.28
41062;BME280;26812;42.662;23.352;2023-01-30T05:15:16;95008.13;;;-0.27;71.62
41062;BME280;26812;42.662;23.352;2023-01-30T05:17:42;95014.41;;;-0.33;71.48
41062;BME280;26812;42.662;23.352;2023-01-30T05:20:08;94958.53;;;-0.58;70.97
41062;BME280;26812;42.662;23.352;2023-01-30T05:22:34;95042.97;;;-0.13;71.20
41062;BME280;26812;42.662;23.352;2023-01-30T05:25:00;95048.63;;;-0.05;70.77
41062;BME280;26812;42.662;23.352;2023-01-30T05:27:28;95011.84;;;-0.28;71.02
41062;BME280;26812;42.662;23.352;2023-01-30T05:29:53;94987.13;;;-0.34;70.61
41062;BME280;26812;42.662;23.352;2023-01-30T05:32:19;95037.75;;;0.14;70.11
41062;BME280;26812;42.662;23.352;2023-01-30T05:34:47;95027.50;;;0.22;69.91
41062;BME280;26812;42.662;23.352;2023-01-30T05:37:13;95042.09;;;0.25;69.74
41062;BME280;26812;42.662;23.352;2023-01-30T05:39:39;95019.94;;;0.09;70.02
41062;BME280;26812;42.662;23.352;2023-01-30T05:42:05;94995.88;;;-0.11;70.24
41062;BME280;26812;42.662;23.352;2023-01-30T05:44:46;95043.78;;;0.09;70.56
41062;BME280;26812;42.662;23.352;2023-01-30T05:47:50;95028.25;;;-0.04;70.90
41062;BME280;26812;42.662;23.352;2023-01-30T05:50:16;95013.56;;;-0.17;70.99
41062;BME280;26812;42.662;23.352;2023-01-30T05:52:50;95029.19;;;0.07;70.95
41062;BME280;26812;42.662;23.352;2023-01-30T05:55:15;95025.25;;;0.09;70.27
41062;BME280;26812;42.662;23.352;2023-01-30T05:57:56;95036.84;;;0.03;71.39
41062;BME280;26812;42.662;23.352;2023-01-30T06:00:34;95049.59;;;0.06;70.90
41062;BME280;26812;42.662;23.352;2023-01-30T06:03:00;95007.81;;;-0.09;71.05
41062;BME280;26812;42.662;23.352;2023-01-30T06:05:25;95035.41;;;-0.05;71.84
41062;BME280;26812;42.662;23.352;2023-01-30T06:07:50;95028.19;;;-0.09;71.20
41062;BME280;26812;42.662;23.352;2023-01-30T06:10:16;95004.16;;;-0.68;72.45
41062;BME280;26812;42.662;23.352;2023-01-30T06:12:42;95002.84;;;-0.49;72.47
41062;BME280;26812;42.662;23.352;2023-01-30T06:15:07;95032.34;;;-0.18;72.23
41062;BME280;26812;42.662;23.352;2023-01-30T06:17:41;95030.28;;;-0.33;72.96
41062;BME280;26812;42.662;23.352;2023-01-30T06:20:08;95035.66;;;-0.06;72.25
41062;BME280;26812;42.662;23.352;2023-01-30T06:22:33;95018.19;;;-0.29;72.28
41062;BME280;26812;42.662;23.352;2023-01-30T06:24:59;95008.38;;;-0.28;72.67
41062;BME280;26812;42.662;23.352;2023-01-30T06:27:24;94986.22;;;-0.22;72.13
41062;BME280;26812;42.662;23.352;2023-01-30T06:29:50;95031.41;;;-0.07;72.15
41062;BME280;26812;42.662;23.352;2023-01-30T06:32:15;95026.94;;;-0.02;72.61
41062;BME280;26812;42.662;23.352;2023-01-30T06:34:40;94963.03;;;-0.32;72.99
41062;BME280;26812;42.662;23.352;2023-01-30T06:37:06;95014.84;;;0.03;71.88
41062;BME280;26812;42.662;23.352;2023-01-30T06:39:31;94907.84;;;-0.67;72.43
41062;BME280;26812;42.662;23.352;2023-01-30T06:41:56;94991.69;;;-0.51;72.15
41062;BME280;26812;42.662;23.352;2023-01-30T06:44:22;95024.81;;;-0.48;72.65
41062;BME280;26812;42.662;23.352;2023-01-30T06:46:47;95023.69;;;-0.09;72.91
41062;BME280;26812;42.662;23.352;2023-01-30T06:49:13;94979.44;;;-0.35;72.38
41062;BME280;26812;42.662;23.352;2023-01-30T06:51:38;94982.56;;;-0.38;71.89
41062;BME280;26812;42.662;23.352;2023-01-30T06:54:04;95014.41;;;-0.11;71.33
41062;BME280;26812;42.662;23.352;2023-01-30T06:56:36;95042.94;;;0.04;71.71
41062;BME280;26812;42.662;23.352;2023-01-30T06:59:01;94995.22;;;-0.23;72.05
41062;BME280;26812;42.662;23.352;2023-01-30T07:01:37;95053.22;;;0.00;71.21
41062;BME280;26812;42.662;23.352;2023-01-30T07:04:17;95039.97;;;-0.22;72.00
41062;BME280;26812;42.662;23.352;2023-01-30T07:06:43;94962.44;;;-1.00;72.26
41062;BME280;26812;42.662;23.352;2023-01-30T07:09:09;95036.94;;;-0.52;73.34
41062;BME280;26812;42.662;23.352;2023-01-30T07:11:34;95016.38;;;-0.45;73.25
41062;BME280;26812;42.662;23.352;2023-01-30T07:14:00;94966.91;;;-0.62;71.82
41062;BME280;26812;42.662;23.352;2023-01-30T07:16:25;94932.78;;;-0.85;71.74
41062;BME280;26812;42.662;23.352;2023-01-30T07:18:56;95025.13;;;-0.23;72.39
41062;BME280;26812;42.662;23.352;2023-01-30T07:21:24;95065.81;;;-0.07;72.08
41062;BME280;26812;42.662;23.352;2023-01-30T07:23:49;95030.53;;;-0.35;72.32
41062;BME280;26812;42.662;23.352;2023-01-30T07:26:15;95071.81;;;-0.17;72.07
41062;BME280;26812;42.662;23.352;2023-01-30T07:28:40;95055.72;;;-0.10;72.57
41062;BME280;26812;42.662;23.352;2023-01-30T07:31:05;95017.59;;;-0.53;72.88
41062;BME280;26812;42.662;23.352;2023-01-30T07:33:31;95068.78;;;-0.25;73.09
41062;BME280;26812;42.662;23.352;2023-01-30T07:35:56;94941.91;;;-0.93;73.00
41062;BME280;26812;42.662;23.352;2023-01-30T07:38:22;95070.16;;;-0.23;72.68
41062;BME280;26812;42.662;23.352;2023-01-30T07:40:47;94926.44;;;-1.39;73.28
41062;BME280;26812;42.662;23.352;2023-01-30T07:43:13;94974.13;;;-0.96;72.02
41062;BME280;26812;42.662;23.352;2023-01-30T07:45:45;95087.31;;;-0.04;72.62
41062;BME280;26812;42.662;23.352;2023-01-30T07:48:14;95085.09;;;-0.12;71.93
41062;BME280;26812;42.662;23.352;2023-01-30T07:50:40;95000.09;;;-0.93;72.33
41062;BME280;26812;42.662;23.352;2023-01-30T07:53:08;95007.78;;;-0.74;72.95
41062;BME280;26812;42.662;23.352;2023-01-30T07:55:34;95058.44;;;-0.27;72.62
41062;BME280;26812;42.662;23.352;2023-01-30T07:57:59;95070.22;;;-0.18;73.11
41062;BME280;26812;42.662;23.352;2023-01-30T08:00:25;95043.19;;;0.02;72.56
41062;BME280;26812;42.662;23.352;2023-01-30T08:02:51;95068.78;;;0.18;71.58
41062;BME280;26812;42.662;23.352;2023-01-30T08:05:25;95049.63;;;0.33;71.39
41062;BME280;26812;42.662;23.352;2023-01-30T08:08:00;95050.41;;;0.34;71.30
41062;BME280;26812;42.662;23.352;2023-01-30T08:10:25;95018.78;;;0.27;70.42
41062;BME280;26812;42.662;23.352;2023-01-30T08:12:54;95031.13;;;0.16;69.81
41062;BME280;26812;42.662;23.352;2023-01-30T08:15:20;94980.97;;;-0.17;69.85
41062;BME280;26812;42.662;23.352;2023-01-30T08:17:53;95044.44;;;0.21;70.01
41062;BME280;26812;42.662;23.352;2023-01-30T08:20:19;95035.06;;;0.36;70.11
41062;BME280;26812;42.662;23.352;2023-01-30T08:22:44;94977.78;;;-0.19;70.01
41062;BME280;26812;42.662;23.352;2023-01-30T08:25:10;95005.09;;;0.08;69.80
41062;BME280;26812;42.662;23.352;2023-01-30T08:27:35;94994.22;;;0.32;69.38
41062;BME280;26812;42.662;23.352;2023-01-30T08:30:00;94972.59;;;0.18;68.98
41062;BME280;26812;42.662;23.352;2023-01-30T08:32:26;94923.66;;;-0.02;68.75
41062;BME280;26812;42.662;23.352;2023-01-30T08:34:51;95003.19;;;0.57;67.89
41062;BME280;26812;42.662;23.352;2023-01-30T08:37:17;95031.56;;;0.89;67.80
41062;BME280;26812;42.662;23.352;2023-01-30T08:39:42;94993.28;;;0.48;67.72
41062;BME280;26812;42.662;23.352;2023-01-30T08:42:07;94999.03;;;0.67;67.18
41062;BME280;26812;42.662;23.352;2023-01-30T08:44:33;94902.06;;;0.12;66.58
41062;BME280;26812;42.662;23.352;2023-01-30T08:46:58;95021.06;;;0.67;67.32
41062;BME280;26812;42.662;23.352;2023-01-30T08:49:24;94995.66;;;0.76;67.50
41062;BME280;26812;42.662;23.352;2023-01-30T08:51:49;95010.22;;;0.74;66.92
41062;BME280;26812;42.662;23.352;2023-01-30T08:54:14;94970.41;;;0.37;66.69
41062;BME280;26812;42.662;23.352;2023-01-30T08:56:40;94950.91;;;0.21;66.41
41062;BME280;26812;42.662;23.352;2023-01-30T08:59:06;94952.53;;;0.27;66.60
41062;BME280;26812;42.662;23.352;2023-01-30T09:01:38;95002.47;;;0.35;66.82
41062;BME280;26812;42.662;23.352;2023-01-30T09:04:03;94984.03;;;0.23;66.25
41062;BME280;26812;42.662;23.352;2023-01-30T09:06:29;94991.44;;;0.21;66.25
41062;BME280;26812;42.662;23.352;2023-01-30T09:08:55;95003.78;;;0.65;66.76
41062;BME280;26812;42.662;23.352;2023-01-30T09:11:20;94949.06;;;0.53;65.07
41062;BME280;26812;42.662;23.352;2023-01-30T09:13:46;95015.94;;;1.30;64.40
41062;BME280;26812;42.662;23.352;2023-01-30T09:16:11;95006.00;;;1.10;63.76
41062;BME280;26812;42.662;23.352;2023-01-30T09:18:41;94992.59;;;1.32;63.04
41062;BME280;26812;42.662;23.352;2023-01-30T09:21:08;94992.69;;;1.52;62.09
41062;BME280;26812;42.662;23.352;2023-01-30T09:23:34;95002.03;;;1.54;61.88
41062;BME280;26812;42.662;23.352;2023-01-30T09:25:59;94949.06;;;1.33;63.16
41062;BME280;26812;42.662;23.352;2023-01-30T09:28:26;94911.06;;;1.22;62.34
41062;BME280;26812;42.662;23.352;2023-01-30T09:30:51;94892.72;;;1.15;63.10
41062;BME280;26812;42.662;23.352;2023-01-30T09:33:17;94919.06;;;1.27;62.83
41062;BME280;26812;42.662;23.352;2023-01-30T09:35:48;94952.59;;;1.48;62.94
41062;BME280;26812;42.662;23.352;2023-01-30T09:38:14;94873.81;;;0.22;63.45
41062;BME280;26812;42.662;23.352;2023-01-30T09:43:37;94884.50;;;0.33;67.14
41062;BME280;26812;42.662;23.352;2023-01-30T09:46:33;94896.50;;;0.40;65.27
41062;BME280;26812;42.662;23.352;2023-01-30T09:54:43;94962.72;;;1.09;65.42
41062;BME280;26812;42.662;23.352;2023-01-30T09:57:20;94971.63;;;1.30;64.72
41062;BME280;26812;42.662;23.352;2023-01-30T10:05:03;94943.44;;;0.82;67.20
41062;BME280;26812;42.662;23.352;2023-01-30T10:15:52;94937.91;;;0.51;67.39
41062;BME280;26812;42.662;23.352;2023-01-30T10:21:03;94930.09;;;1.09;66.72
41062;BME280;26812;42.662;23.352;2023-01-30T10:26:12;94932.47;;;1.05;65.42
41062;BME280;26812;42.662;23.352;2023-01-30T10:28:53;94892.94;;;1.04;65.05
41062;BME280;26812;42.662;23.352;2023-01-30T10:31:22;94851.56;;;1.08;65.01
41062;BME280;26812;42.662;23.352;2023-01-30T10:33:58;94896.53;;;1.40;64.03
41062;BME280;26812;42.662;23.352;2023-01-30T10:36:40;94885.53;;;1.11;63.01
41062;BME280;26812;42.662;23.352;2023-01-30T10:39:23;94871.81;;;1.29;63.80
41062;BME280;26812;42.662;23.352;2023-01-30T10:42:11;94883.78;;;1.32;63.75
41062;BME280;26812;42.662;23.352;2023-01-30T10:44:39;94857.69;;;1.13;63.42
41062;BME280;26812;42.662;23.352;2023-01-30T10:49:43;94844.97;;;1.20;63.12
41062;BME280;26812;42.662;23.352;2023-01-30T10:54:56;94871.69;;;1.76;61.98
41062;BME280;26812;42.662;23.352;2023-01-30T11:00:00;94835.34;;;1.92;61.08
41062;BME280;26812;42.662;23.352;2023-01-30T11:02:42;94844.13;;;2.48;59.73
41062;BME280;26812;42.662;23.352;2023-01-30T11:05:17;94804.00;;;1.89;59.95
41062;BME280;26812;42.662;23.352;2023-01-30T11:07:46;94795.97;;;2.40;58.39
41062;BME280;26812;42.662;23.352;2023-01-30T11:10:25;94815.97;;;3.27;56.16
41062;BME280;26812;42.662;23.352;2023-01-30T11:13:18;94792.13;;;3.95;55.52
41062;BME280;26812;42.662;23.352;2023-01-30T11:15:47;94751.84;;;4.84;49.17
41062;BME280;26812;42.662;23.352;2023-01-30T11:18:18;94796.19;;;5.70;49.58
41062;BME280;26812;42.662;23.352;2023-01-30T11:21:06;94782.78;;;6.13;46.50
41062;BME280;26812;42.662;23.352;2023-01-30T11:23:42;94804.78;;;4.48;50.21
41062;BME280;26812;42.662;23.352;2023-01-30T11:26:43;94792.69;;;5.94;47.51
41062;BME280;26812;42.662;23.352;2023-01-30T11:31:52;94784.31;;;9.83;39.53
41062;BME280;26812;42.662;23.352;2023-01-30T11:34:20;94777.81;;;11.26;36.44
41062;BME280;26812;42.662;23.352;2023-01-30T11:36:47;94776.84;;;12.85;33.25
41062;BME280;26812;42.662;23.352;2023-01-30T11:41:45;94769.13;;;14.86;29.73
41062;BME280;26812;42.662;23.352;2023-01-30T11:44:29;94753.91;;;13.03;30.12
41062;BME280;26812;42.662;23.352;2023-01-30T11:47:00;94755.00;;;11.82;33.17
41062;BME280;26812;42.662;23.352;2023-01-30T11:49:31;94692.34;;;12.31;32.58
41062;BME280;26812;42.662;23.352;2023-01-30T11:51:59;94738.09;;;13.51;31.50
41062;BME280;26812;42.662;23.352;2023-01-30T11:54:33;94714.69;;;13.71;29.45
41062;BME280;26812;42.662;23.352;2023-01-30T11:57:04;94734.13;;;11.92;34.00
41062;BME280;26812;42.662;23.352;2023-01-30T11:59:36;94720.31;;;13.04;31.48
41062;BME280;26812;42.662;23.352;2023-01-30T12:02:44;94713.94;;;13.46;30.45
41062;BME280;26812;42.662;23.352;2023-01-30T12:05:30;94710.81;;;13.96;29.76
41062;BME280;26812;42.662;23.352;2023-01-30T12:10:53;94708.47;;;12.85;32.24
41062;BME280;26812;42.662;23.352;2023-01-30T12:13:47;94695.22;;;13.41;30.59
41062;BME280;26812;42.662;23.352;2023-01-30T12:16:21;94680.75;;;13.73;30.41
41062;BME280;26812;42.662;23.352;2023-01-30T12:19:01;94640.06;;;14.53;29.02
41062;BME280;26812;42.662;23.352;2023-01-30T12:22:34;94668.13;;;14.05;29.12
41062;BME280;26812;42.662;23.352;2023-01-30T12:24:54;94691.38;;;13.42;30.51
41062;BME280;26812;42.662;23.352;2023-01-30T12:30:35;94673.66;;;10.83;34.83
41062;BME280;26812;42.662;23.352;2023-01-30T12:33:05;94648.38;;;9.60;36.51
41062;BME280;26812;42.662;23.352;2023-01-30T12:39:02;94653.09;;;9.46;36.98
41062;BME280;26812;42.662;23.352;2023-01-30T12:41:43;94650.19;;;8.99;37.95
41062;BME280;26812;42.662;23.352;2023-01-30T12:52:21;94644.00;;;6.66;42.72
41062;BME280;26812;42.662;23.352;2023-01-30T13:03:34;94610.38;;;8.53;39.63
41062;BME280;26812;42.662;23.352;2023-01-30T13:06:23;94619.75;;;8.02;40.10
41062;BME280;26812;42.662;23.352;2023-01-30T13:09:13;94624.78;;;9.83;37.63
41062;BME280;26812;42.662;23.352;2023-01-30T13:11:48;94619.41;;;9.48;37.96
41062;BME280;26812;42.662;23.352;2023-01-30T13:14:33;94632.97;;;9.00;37.77
41062;BME280;26812;42.662;23.352;2023-01-30T13:17:19;94624.41;;;8.41;39.08
41062;BME280;26812;42.662;23.352;2023-01-30T13:19:57;94617.63;;;7.23;41.66
41062;BME280;26812;42.662;23.352;2023-01-30T13:27:37;94610.19;;;6.57;42.32
41062;BME280;26812;42.662;23.352;2023-01-30T13:30:07;94609.31;;;6.34;43.55
41062;BME280;26812;42.662;23.352;2023-01-30T13:32:38;94590.84;;;5.91;45.01
41062;BME280;26812;42.662;23.352;2023-01-30T13:35:16;94577.25;;;6.83;42.50
41062;BME280;26812;42.662;23.352;2023-01-30T13:37:46;94595.63;;;5.43;45.25
41062;BME280;26812;42.662;23.352;2023-01-30T13:40:16;94576.09;;;5.94;45.76
41062;BME280;26812;42.662;23.352;2023-01-30T13:45:16;94589.19;;;9.34;38.20
41062;BME280;26812;42.662;23.352;2023-01-30T13:50:39;94585.09;;;8.14;40.92
41062;BME280;26812;42.662;23.352;2023-01-30T13:53:33;94582.63;;;10.13;35.77
41062;BME280;26812;42.662;23.352;2023-01-30T14:01:19;94584.88;;;10.49;35.19
41062;BME280;26812;42.662;23.352;2023-01-30T14:03:47;94559.16;;;11.31;33.56
41062;BME280;26812;42.662;23.352;2023-01-30T14:06:32;94550.69;;;11.95;31.72
41062;BME280;26812;42.662;23.352;2023-01-30T14:09:02;94584.53;;;12.50;31.29
41062;BME280;26812;42.662;23.352;2023-01-30T14:14:39;94574.97;;;13.26;29.69
41062;BME280;26812;42.662;23.352;2023-01-30T14:17:12;94547.84;;;12.86;30.02
41062;BME280;26812;42.662;23.352;2023-01-30T14:19:42;94573.34;;;10.40;32.76
41062;BME280;26812;42.662;23.352;2023-01-30T14:22:20;94583.72;;;7.41;40.21
41062;BME280;26812;42.662;23.352;2023-01-30T14:33:03;94580.59;;;3.57;51.11
41062;BME280;26812;42.662;23.352;2023-01-30T14:35:30;94590.06;;;2.07;54.25
41062;BME280;26812;42.662;23.352;2023-01-30T14:38:10;94590.31;;;2.10;55.53
41062;BME280;26812;42.662;23.352;2023-01-30T14:40:40;94555.94;;;1.60;56.97
41062;BME280;26812;42.662;23.352;2023-01-30T14:53:48;94533.47;;;2.01;55.91
41062;BME280;26812;42.662;23.352;2023-01-30T14:56:15;94565.13;;;1.98;56.58
41062;BME280;26812;42.662;23.352;2023-01-30T14:58:54;94536.16;;;1.96;57.46
41062;BME280;26812;42.662;23.352;2023-01-30T15:01:24;94538.78;;;2.01;56.93
41062;BME280;26812;42.662;23.352;2023-01-30T15:03:50;94555.91;;;1.70;57.95
41062;BME280;26812;42.662;23.352;2023-01-30T15:06:15;94560.75;;;1.27;58.82
41062;BME280;26812;42.662;23.352;2023-01-30T15:08:44;94499.69;;;0.30;60.71
41062;BME280;26812;42.662;23.352;2023-01-30T15:11:23;94554.91;;;0.79;61.58
41062;BME280;26812;42.662;23.352;2023-01-30T15:14:19;94559.44;;;1.14;62.13
41062;BME280;26812;42.662;23.352;2023-01-30T15:17:04;94549.09;;;1.28;60.49
41062;BME280;26812;42.662;23.352;2023-01-30T15:30:38;94568.47;;;1.29;59.56
41062;BME280;26812;42.662;23.352;2023-01-30T15:33:18;94561.53;;;1.33;60.25
41062;BME280;26812;42.662;23.352;2023-01-30T15:35:44;94569.25;;;1.04;60.22
41062;BME280;26812;42.662;23.352;2023-01-30T15:38:30;94570.31;;;0.98;61.54
41062;BME280;26812;42.662;23.352;2023-01-30T15:41:03;94569.22;;;0.78;61.68